sensor_id;sensor_type;location;lat;lon;timestamp;P1;durP1;ratioP1;P2;durP2;ratioP2
7193;SDS011;3638;48.820;9.244;2023-06-14T00:01:21;9.20;;;4.53;;
7193;SDS011;3638;48.820;9.244;2023-06-14T00:03:48;7.43;;;4.67;;
7193;SDS011;3638;48.820;9.244;2023-06-14T00:06:14;5.17;;;4.67;;
7193;SDS011;3638;48.820;9.244;2023-06-14T00:08:43;6.27;;;4.37;;
7193;SDS011;3638;48.820;9.244;2023-06-14T00:11:10;5.30;;;4.77;;
7193;SDS011;3638;48.820;9.244;2023-06-14T00:13:37;4.90;;;4.40;;
7193;SDS011;3638;48.820;9.244;2023-06-14T00:16:05;6.73;;;4.90;;
7193;SDS011;3638;48.820;9.244;2023-06-14T00:18:33;6.60;;;4.80;;
7193;SDS011;3638;48.820;9.244;2023-06-14T00:20:59;5.10;;;4.50;;
7193;SDS011;3638;48.820;9.244;2023-06-14T00:23:27;6.23;;;5.00;;
7193;SDS011;3638;48.820;9.244;2023-06-14T00:25:55;5.13;;;4.60;;
7193;SDS011;3638;48.820;9.244;2023-06-14T00:28:22;15.40;;;4.77;;
7193;SDS011;3638;48.820;9.244;2023-06-14T00:30:48;10.33;;;5.13;;
7193;SDS011;3638;48.820;9.244;2023-06-14T00:33:15;6.47;;;4.80;;
7193;SDS011;3638;48.820;9.244;2023-06-14T00:35:42;6.00;;;4.60;;
7193;SDS011;3638;48.820;9.244;2023-06-14T00:38:09;9.97;;;4.80;;
7193;SDS011;3638;48.820;9.244;2023-06-14T00:40:36;5.57;;;4.73;;
7193;SDS011;3638;48.820;9.244;2023-06-14T00:43:04;7.27;;;5.20;;
7193;SDS011;3638;48.820;9.244;2023-06-14T00:45:31;5.03;;;4.53;;
7193;SDS011;3638;48.820;9.244;2023-06-14T00:48:01;5.03;;;4.60;;
7193;SDS011;3638;48.820;9.244;2023-06-14T00:50:28;5.30;;;4.47;;
7193;SDS011;3638;48.820;9.244;2023-06-14T00:52:57;7.57;;;4.97;;
7193;SDS011;3638;48.820;9.244;2023-06-14T00:55:24;6.10;;;5.20;;
7193;SDS011;3638;48.820;9.244;2023-06-14T00:57:51;7.00;;;4.83;;
7193;SDS011;3638;48.820;9.244;2023-06-14T01:00:19;7.37;;;4.60;;
7193;SDS011;3638;48.820;9.244;2023-06-14T01:02:46;5.47;;;4.70;;
7193;SDS011;3638;48.820;9.244;2023-06-14T01:05:14;5.93;;;4.90;;
7193;SDS011;3638;48.820;9.244;2023-06-14T01:07:49;8.40;;;4.90;;
7193;SDS011;3638;48.820;9.244;2023-06-14T01:10:35;6.00;;;4.30;;
7193;SDS011;3638;48.820;9.244;2023-06-14T01:13:10;6.57;;;5.00;;
7193;SDS011;3638;48.820;9.244;2023-06-14T01:15:47;6.27;;;4.77;;
7193;SDS011;3638;48.820;9.244;2023-06-14T01:18:16;7.50;;;4.90;;
7193;SDS011;3638;48.820;9.244;2023-06-14T01:20:44;6.47;;;4.97;;
7193;SDS011;3638;48.820;9.244;2023-06-14T01:23:15;6.60;;;4.67;;
7193;SDS011;3638;48.820;9.244;2023-06-14T01:25:42;7.33;;;4.67;;
7193;SDS011;3638;48.820;9.244;2023-06-14T01:28:10;6.20;;;4.60;;
7193;SDS011;3638;48.820;9.244;2023-06-14T01:30:38;6.47;;;4.93;;
7193;SDS011;3638;48.820;9.244;2023-06-14T01:33:10;5.53;;;4.53;;
7193;SDS011;3638;48.820;9.244;2023-06-14T01:35:38;5.60;;;4.73;;
7193;SDS011;3638;48.820;9.244;2023-06-14T01:38:05;7.63;;;5.23;;
7193;SDS011;3638;48.820;9.244;2023-06-14T01:43:01;6.10;;;5.23;;
7193;SDS011;3638;48.820;9.244;2023-06-14T01:45:29;5.43;;;4.80;;
7193;SDS011;3638;48.820;9.244;2023-06-14T01:47:57;6.80;;;5.30;;
7193;SDS011;3638;48.820;9.244;2023-06-14T01:50:27;7.63;;;5.20;;
7193;SDS011;3638;48.820;9.244;2023-06-14T01:52:55;7.37;;;5.07;;
7193;SDS011;3638;48.820;9.244;2023-06-14T01:55:22;6.20;;;4.83;;
7193;SDS011;3638;48.820;9.244;2023-06-14T01:57:50;5.67;;;5.17;;
7193;SDS011;3638;48.820;9.244;2023-06-14T02:00:18;5.53;;;4.80;;
7193;SDS011;3638;48.820;9.244;2023-06-14T02:02:46;5.30;;;4.80;;
7193;SDS011;3638;48.820;9.244;2023-06-14T02:05:14;5.27;;;4.77;;
7193;SDS011;3638;48.820;9.244;2023-06-14T02:07:43;5.80;;;5.20;;
7193;SDS011;3638;48.820;9.244;2023-06-14T02:10:11;6.53;;;5.50;;
7193;SDS011;3638;48.820;9.244;2023-06-14T02:12:37;6.97;;;5.43;;
7193;SDS011;3638;48.820;9.244;2023-06-14T02:15:05;6.33;;;5.73;;
7193;SDS011;3638;48.820;9.244;2023-06-14T02:17:34;7.27;;;5.63;;
7193;SDS011;3638;48.820;9.244;2023-06-14T02:20:01;6.60;;;4.90;;
7193;SDS011;3638;48.820;9.244;2023-06-14T02:22:30;7.67;;;5.60;;
7193;SDS011;3638;48.820;9.244;2023-06-14T02:24:57;6.43;;;5.13;;
7193;SDS011;3638;48.820;9.244;2023-06-14T02:27:23;7.27;;;5.83;;
7193;SDS011;3638;48.820;9.244;2023-06-14T02:29:51;8.13;;;5.63;;
7193;SDS011;3638;48.820;9.244;2023-06-14T02:32:18;7.60;;;6.10;;
7193;SDS011;3638;48.820;9.244;2023-06-14T02:34:46;6.10;;;5.47;;
7193;SDS011;3638;48.820;9.244;2023-06-14T02:37:14;7.27;;;5.37;;
7193;SDS011;3638;48.820;9.244;2023-06-14T02:39:41;8.83;;;6.33;;
7193;SDS011;3638;48.820;9.244;2023-06-14T02:42:08;6.67;;;5.97;;
7193;SDS011;3638;48.820;9.244;2023-06-14T02:44:36;9.43;;;6.03;;
7193;SDS011;3638;48.820;9.244;2023-06-14T02:47:03;7.90;;;6.50;;
7193;SDS011;3638;48.820;9.244;2023-06-14T02:49:31;7.10;;;6.40;;
7193;SDS011;3638;48.820;9.244;2023-06-14T02:51:59;7.00;;;6.13;;
7193;SDS011;3638;48.820;9.244;2023-06-14T02:54:26;8.00;;;6.27;;
7193;SDS011;3638;48.820;9.244;2023-06-14T02:56:52;6.77;;;5.80;;
7193;SDS011;3638;48.820;9.244;2023-06-14T02:59:19;10.17;;;6.10;;
7193;SDS011;3638;48.820;9.244;2023-06-14T03:01:50;8.37;;;6.13;;
7193;SDS011;3638;48.820;9.244;2023-06-14T03:04:16;8.70;;;6.70;;
7193;SDS011;3638;48.820;9.244;2023-06-14T03:06:43;8.13;;;6.40;;
7193;SDS011;3638;48.820;9.244;2023-06-14T03:09:16;7.23;;;6.43;;
7193;SDS011;3638;48.820;9.244;2023-06-14T03:11:44;8.00;;;6.80;;
7193;SDS011;3638;48.820;9.244;2023-06-14T03:14:11;6.93;;;5.67;;
7193;SDS011;3638;48.820;9.244;2023-06-14T03:16:38;8.13;;;6.33;;
7193;SDS011;3638;48.820;9.244;2023-06-14T03:19:06;8.87;;;7.00;;
7193;SDS011;3638;48.820;9.244;2023-06-14T03:21:33;7.80;;;6.90;;
7193;SDS011;3638;48.820;9.244;2023-06-14T03:24:00;9.47;;;5.60;;
7193;SDS011;3638;48.820;9.244;2023-06-14T03:26:29;9.23;;;6.33;;
7193;SDS011;3638;48.820;9.244;2023-06-14T03:28:59;7.90;;;6.17;;
7193;SDS011;3638;48.820;9.244;2023-06-14T03:31:26;8.17;;;6.30;;
7193;SDS011;3638;48.820;9.244;2023-06-14T03:33:57;7.27;;;6.10;;
7193;SDS011;3638;48.820;9.244;2023-06-14T03:36:24;8.73;;;7.00;;
7193;SDS011;3638;48.820;9.244;2023-06-14T03:38:52;10.90;;;6.03;;
7193;SDS011;3638;48.820;9.244;2023-06-14T03:41:20;8.23;;;5.97;;
7193;SDS011;3638;48.820;9.244;2023-06-14T03:43:48;7.57;;;5.83;;
7193;SDS011;3638;48.820;9.244;2023-06-14T03:46:15;7.47;;;6.20;;
7193;SDS011;3638;48.820;9.244;2023-06-14T03:48:42;9.20;;;6.37;;
7193;SDS011;3638;48.820;9.244;2023-06-14T03:51:09;9.10;;;6.33;;
7193;SDS011;3638;48.820;9.244;2023-06-14T03:53:35;8.77;;;6.97;;
7193;SDS011;3638;48.820;9.244;2023-06-14T03:56:02;8.17;;;6.27;;
7193;SDS011;3638;48.820;9.244;2023-06-14T03:58:29;7.00;;;6.00;;
7193;SDS011;3638;48.820;9.244;2023-06-14T04:00:58;8.33;;;6.33;;
7193;SDS011;3638;48.820;9.244;2023-06-14T04:03:25;9.13;;;6.40;;
7193;SDS011;3638;48.820;9.244;2023-06-14T04:05:54;9.60;;;6.33;;
7193;SDS011;3638;48.820;9.244;2023-06-14T04:08:24;9.17;;;6.07;;
7193;SDS011;3638;48.820;9.244;2023-06-14T04:10:52;8.03;;;6.00;;
7193;SDS011;3638;48.820;9.244;2023-06-14T04:13:19;7.57;;;6.10;;
7193;SDS011;3638;48.820;9.244;2023-06-14T04:15:45;7.27;;;6.30;;
7193;SDS011;3638;48.820;9.244;2023-06-14T04:18:14;10.03;;;6.37;;
7193;SDS011;3638;48.820;9.244;2023-06-14T04:20:41;7.77;;;5.80;;
7193;SDS011;3638;48.820;9.244;2023-06-14T04:23:11;8.00;;;6.17;;
7193;SDS011;3638;48.820;9.244;2023-06-14T04:25:40;6.73;;;5.60;;
7193;SDS011;3638;48.820;9.244;2023-06-14T04:28:09;7.10;;;5.47;;
7193;SDS011;3638;48.820;9.244;2023-06-14T04:30:37;6.03;;;5.47;;
7193;SDS011;3638;48.820;9.244;2023-06-14T04:33:05;7.30;;;5.87;;
7193;SDS011;3638;48.820;9.244;2023-06-14T04:35:34;9.23;;;6.17;;
7193;SDS011;3638;48.820;9.244;2023-06-14T04:38:02;6.90;;;5.17;;
7193;SDS011;3638;48.820;9.244;2023-06-14T04:40:34;7.83;;;5.57;;
7193;SDS011;3638;48.820;9.244;2023-06-14T04:43:07;7.05;;;5.38;;
7193;SDS011;3638;48.820;9.244;2023-06-14T04:45:37;7.07;;;5.43;;
7193;SDS011;3638;48.820;9.244;2023-06-14T04:48:04;5.93;;;5.25;;
7193;SDS011;3638;48.820;9.244;2023-06-14T04:50:33;9.13;;;5.45;;
7193;SDS011;3638;48.820;9.244;2023-06-14T04:53:00;8.70;;;6.00;;
7193;SDS011;3638;48.820;9.244;2023-06-14T04:55:27;7.18;;;5.85;;
7193;SDS011;3638;48.820;9.244;2023-06-14T04:57:54;10.23;;;6.10;;
7193;SDS011;3638;48.820;9.244;2023-06-14T05:00:21;8.05;;;5.93;;
7193;SDS011;3638;48.820;9.244;2023-06-14T05:02:48;7.38;;;5.82;;
7193;SDS011;3638;48.820;9.244;2023-06-14T05:05:18;11.82;;;6.03;;
7193;SDS011;3638;48.820;9.244;2023-06-14T05:07:46;9.90;;;6.10;;
7193;SDS011;3638;48.820;9.244;2023-06-14T05:10:13;7.43;;;5.38;;
7193;SDS011;3638;48.820;9.244;2023-06-14T05:12:40;9.65;;;5.95;;
7193;SDS011;3638;48.820;9.244;2023-06-14T05:15:09;8.43;;;5.63;;
7193;SDS011;3638;48.820;9.244;2023-06-14T05:17:36;8.45;;;5.38;;
7193;SDS011;3638;48.820;9.244;2023-06-14T05:20:06;7.43;;;5.38;;
7193;SDS011;3638;48.820;9.244;2023-06-14T05:22:35;7.60;;;5.47;;
7193;SDS011;3638;48.820;9.244;2023-06-14T05:25:04;9.63;;;5.78;;
7193;SDS011;3638;48.820;9.244;2023-06-14T05:27:31;6.22;;;5.25;;
7193;SDS011;3638;48.820;9.244;2023-06-14T05:30:00;6.85;;;5.50;;
7193;SDS011;3638;48.820;9.244;2023-06-14T05:32:28;7.10;;;5.25;;
7193;SDS011;3638;48.820;9.244;2023-06-14T05:34:55;7.07;;;5.70;;
7193;SDS011;3638;48.820;9.244;2023-06-14T05:37:22;8.02;;;5.70;;
7193;SDS011;3638;48.820;9.244;2023-06-14T05:39:49;7.28;;;5.63;;
7193;SDS011;3638;48.820;9.244;2023-06-14T05:42:17;7.57;;;5.50;;
7193;SDS011;3638;48.820;9.244;2023-06-14T05:44:44;7.68;;;5.45;;
7193;SDS011;3638;48.820;9.244;2023-06-14T05:47:11;8.00;;;5.95;;
7193;SDS011;3638;48.820;9.244;2023-06-14T05:49:38;6.15;;;5.38;;
7193;SDS011;3638;48.820;9.244;2023-06-14T05:52:05;6.75;;;5.90;;
7193;SDS011;3638;48.820;9.244;2023-06-14T05:54:33;7.70;;;6.03;;
7193;SDS011;3638;48.820;9.244;2023-06-14T05:57:00;8.35;;;5.43;;
7193;SDS011;3638;48.820;9.244;2023-06-14T05:59:29;11.07;;;6.05;;
7193;SDS011;3638;48.820;9.244;2023-06-14T06:01:56;6.05;;;5.32;;
7193;SDS011;3638;48.820;9.244;2023-06-14T06:04:23;6.50;;;5.15;;
7193;SDS011;3638;48.820;9.244;2023-06-14T06:06:50;8.77;;;4.75;;
7193;SDS011;3638;48.820;9.244;2023-06-14T06:09:17;6.75;;;5.53;;
7193;SDS011;3638;48.820;9.244;2023-06-14T06:11:45;7.35;;;5.55;;
7193;SDS011;3638;48.820;9.244;2023-06-14T06:14:11;6.10;;;5.50;;
7193;SDS011;3638;48.820;9.244;2023-06-14T06:16:40;6.13;;;4.88;;
7193;SDS011;3638;48.820;9.244;2023-06-14T06:19:06;10.15;;;5.57;;
7193;SDS011;3638;48.820;9.244;2023-06-14T06:21:33;10.95;;;5.80;;
7193;SDS011;3638;48.820;9.244;2023-06-14T06:24:00;8.57;;;5.32;;
7193;SDS011;3638;48.820;9.244;2023-06-14T06:26:30;9.07;;;5.43;;
7193;SDS011;3638;48.820;9.244;2023-06-14T06:28:57;7.43;;;5.18;;
7193;SDS011;3638;48.820;9.244;2023-06-14T06:31:24;10.57;;;5.68;;
7193;SDS011;3638;48.820;9.244;2023-06-14T06:33:53;5.68;;;5.10;;
7193;SDS011;3638;48.820;9.244;2023-06-14T06:36:21;6.63;;;5.45;;
7193;SDS011;3638;48.820;9.244;2023-06-14T06:38:47;8.00;;;5.10;;
7193;SDS011;3638;48.820;9.244;2023-06-14T06:41:14;7.50;;;5.18;;
7193;SDS011;3638;48.820;9.244;2023-06-14T06:43:41;8.25;;;4.57;;
7193;SDS011;3638;48.820;9.244;2023-06-14T06:46:08;8.75;;;4.80;;
7193;SDS011;3638;48.820;9.244;2023-06-14T06:48:35;6.60;;;4.18;;
7193;SDS011;3638;48.820;9.244;2023-06-14T06:51:03;7.80;;;4.85;;
7193;SDS011;3638;48.820;9.244;2023-06-14T06:53:30;7.53;;;5.05;;
7193;SDS011;3638;48.820;9.244;2023-06-14T06:55:57;8.27;;;4.85;;
7193;SDS011;3638;48.820;9.244;2023-06-14T06:58:24;6.32;;;4.57;;
7193;SDS011;3638;48.820;9.244;2023-06-14T07:00:51;8.73;;;4.45;;
7193;SDS011;3638;48.820;9.244;2023-06-14T07:03:18;5.25;;;4.75;;
7193;SDS011;3638;48.820;9.244;2023-06-14T07:05:45;5.72;;;4.38;;
7193;SDS011;3638;48.820;9.244;2023-06-14T07:08:13;5.32;;;4.80;;
7193;SDS011;3638;48.820;9.244;2023-06-14T07:10:40;9.80;;;4.88;;
7193;SDS011;3638;48.820;9.244;2023-06-14T07:13:07;5.78;;;4.30;;
7193;SDS011;3638;48.820;9.244;2023-06-14T07:15:34;8.75;;;4.50;;
7193;SDS011;3638;48.820;9.244;2023-06-14T07:18:01;8.60;;;4.70;;
7193;SDS011;3638;48.820;9.244;2023-06-14T07:20:28;8.23;;;4.55;;
7193;SDS011;3638;48.820;9.244;2023-06-14T07:22:58;7.32;;;4.82;;
7193;SDS011;3638;48.820;9.244;2023-06-14T07:25:26;7.57;;;5.15;;
7193;SDS011;3638;48.820;9.244;2023-06-14T07:27:53;7.32;;;4.47;;
7193;SDS011;3638;48.820;9.244;2023-06-14T07:30:20;8.02;;;4.50;;
7193;SDS011;3638;48.820;9.244;2023-06-14T07:32:50;5.88;;;4.70;;
7193;SDS011;3638;48.820;9.244;2023-06-14T07:35:17;7.15;;;4.90;;
7193;SDS011;3638;48.820;9.244;2023-06-14T07:37:44;7.55;;;4.75;;
7193;SDS011;3638;48.820;9.244;2023-06-14T07:40:12;9.18;;;4.95;;
7193;SDS011;3638;48.820;9.244;2023-06-14T07:42:40;5.50;;;4.50;;
7193;SDS011;3638;48.820;9.244;2023-06-14T07:45:07;5.10;;;4.35;;
7193;SDS011;3638;48.820;9.244;2023-06-14T07:47:35;6.18;;;4.35;;
7193;SDS011;3638;48.820;9.244;2023-06-14T07:50:02;6.50;;;4.93;;
7193;SDS011;3638;48.820;9.244;2023-06-14T07:52:30;7.95;;;4.45;;
7193;SDS011;3638;48.820;9.244;2023-06-14T07:54:57;16.65;;;4.72;;
7193;SDS011;3638;48.820;9.244;2023-06-14T07:57:24;6.93;;;4.50;;
7193;SDS011;3638;48.820;9.244;2023-06-14T07:59:52;6.20;;;4.03;;
7193;SDS011;3638;48.820;9.244;2023-06-14T08:02:19;8.27;;;4.55;;
7193;SDS011;3638;48.820;9.244;2023-06-14T08:04:46;8.68;;;4.70;;
7193;SDS011;3638;48.820;9.244;2023-06-14T08:07:13;6.07;;;4.38;;
7193;SDS011;3638;48.820;9.244;2023-06-14T08:09:40;8.02;;;4.63;;
7193;SDS011;3638;48.820;9.244;2023-06-14T08:12:07;5.03;;;4.28;;
7193;SDS011;3638;48.820;9.244;2023-06-14T08:14:35;5.85;;;4.38;;
7193;SDS011;3638;48.820;9.244;2023-06-14T08:17:04;5.07;;;4.20;;
7193;SDS011;3638;48.820;9.244;2023-06-14T08:19:31;7.15;;;4.60;;
7193;SDS011;3638;48.820;9.244;2023-06-14T08:21:57;6.95;;;4.35;;
7193;SDS011;3638;48.820;9.244;2023-06-14T08:24:25;6.45;;;4.60;;
7193;SDS011;3638;48.820;9.244;2023-06-14T08:26:53;5.65;;;4.40;;
7193;SDS011;3638;48.820;9.244;2023-06-14T08:29:21;9.23;;;4.65;;
7193;SDS011;3638;48.820;9.244;2023-06-14T08:31:48;9.68;;;4.53;;
7193;SDS011;3638;48.820;9.244;2023-06-14T08:34:16;5.82;;;4.30;;
7193;SDS011;3638;48.820;9.244;2023-06-14T08:36:43;9.45;;;4.65;;
7193;SDS011;3638;48.820;9.244;2023-06-14T08:39:10;4.93;;;4.40;;
7193;SDS011;3638;48.820;9.244;2023-06-14T08:41:37;6.53;;;4.38;;
7193;SDS011;3638;48.820;9.244;2023-06-14T08:44:04;6.03;;;4.10;;
7193;SDS011;3638;48.820;9.244;2023-06-14T08:46:32;5.38;;;4.55;;
7193;SDS011;3638;48.820;9.244;2023-06-14T08:49:00;6.80;;;4.28;;
7193;SDS011;3638;48.820;9.244;2023-06-14T08:51:31;5.85;;;4.28;;
7193;SDS011;3638;48.820;9.244;2023-06-14T08:54:01;7.90;;;4.47;;
7193;SDS011;3638;48.820;9.244;2023-06-14T08:56:29;9.70;;;4.32;;
7193;SDS011;3638;48.820;9.244;2023-06-14T08:58:59;6.35;;;4.10;;
7193;SDS011;3638;48.820;9.244;2023-06-14T09:01:29;5.93;;;4.20;;
7193;SDS011;3638;48.820;9.244;2023-06-14T09:03:59;6.22;;;4.20;;
7193;SDS011;3638;48.820;9.244;2023-06-14T09:06:27;7.15;;;4.18;;
7193;SDS011;3638;48.820;9.244;2023-06-14T09:08:56;6.53;;;4.10;;
7193;SDS011;3638;48.820;9.244;2023-06-14T09:11:23;6.70;;;3.80;;
7193;SDS011;3638;48.820;9.244;2023-06-14T09:13:51;4.85;;;4.38;;
7193;SDS011;3638;48.820;9.244;2023-06-14T09:16:18;9.98;;;4.60;;
7193;SDS011;3638;48.820;9.244;2023-06-14T09:18:46;4.45;;;3.72;;
7193;SDS011;3638;48.820;9.244;2023-06-14T09:21:14;4.50;;;3.97;;
7193;SDS011;3638;48.820;9.244;2023-06-14T09:23:42;5.78;;;4.10;;
7193;SDS011;3638;48.820;9.244;2023-06-14T09:26:13;4.25;;;3.75;;
7193;SDS011;3638;48.820;9.244;2023-06-14T09:28:41;6.10;;;3.88;;
7193;SDS011;3638;48.820;9.244;2023-06-14T09:31:10;5.93;;;4.57;;
7193;SDS011;3638;48.820;9.244;2023-06-14T09:33:37;6.38;;;4.00;;
7193;SDS011;3638;48.820;9.244;2023-06-14T09:36:04;7.18;;;4.07;;
7193;SDS011;3638;48.820;9.244;2023-06-14T09:38:36;6.90;;;4.20;;
7193;SDS011;3638;48.820;9.244;2023-06-14T09:41:03;5.32;;;3.88;;
7193;SDS011;3638;48.820;9.244;2023-06-14T09:43:31;6.95;;;3.95;;
7193;SDS011;3638;48.820;9.244;2023-06-14T09:46:00;5.97;;;3.88;;
7193;SDS011;3638;48.820;9.244;2023-06-14T09:48:27;5.72;;;4.05;;
7193;SDS011;3638;48.820;9.244;2023-06-14T09:50:54;5.25;;;3.92;;
7193;SDS011;3638;48.820;9.244;2023-06-14T09:53:24;6.00;;;4.38;;
7193;SDS011;3638;48.820;9.244;2023-06-14T09:55:52;8.20;;;4.25;;
7193;SDS011;3638;48.820;9.244;2023-06-14T09:58:21;6.10;;;3.72;;
7193;SDS011;3638;48.820;9.244;2023-06-14T10:00:53;6.78;;;3.80;;
7193;SDS011;3638;48.820;9.244;2023-06-14T10:03:21;4.97;;;3.72;;
7193;SDS011;3638;48.820;9.244;2023-06-14T10:05:54;4.28;;;3.70;;
7193;SDS011;3638;48.820;9.244;2023-06-14T10:08:27;5.95;;;4.32;;
7193;SDS011;3638;48.820;9.244;2023-06-14T10:10:58;5.68;;;3.38;;
7193;SDS011;3638;48.820;9.244;2023-06-14T10:13:25;6.68;;;3.47;;
7193;SDS011;3638;48.820;9.244;2023-06-14T10:15:57;7.40;;;4.20;;
7193;SDS011;3638;48.820;9.244;2023-06-14T10:18:33;6.63;;;3.90;;
7193;SDS011;3638;48.820;9.244;2023-06-14T10:21:13;5.10;;;3.95;;
7193;SDS011;3638;48.820;9.244;2023-06-14T10:23:47;6.78;;;4.00;;
7193;SDS011;3638;48.820;9.244;2023-06-14T10:26:19;6.75;;;3.97;;
7193;SDS011;3638;48.820;9.244;2023-06-14T10:28:55;4.50;;;4.05;;
7193;SDS011;3638;48.820;9.244;2023-06-14T10:34:09;4.72;;;3.65;;
7193;SDS011;3638;48.820;9.244;2023-06-14T10:36:37;7.25;;;4.10;;
7193;SDS011;3638;48.820;9.244;2023-06-14T10:39:10;7.25;;;3.95;;
7193;SDS011;3638;48.820;9.244;2023-06-14T10:41:42;4.85;;;3.80;;
7193;SDS011;3638;48.820;9.244;2023-06-14T10:47:27;6.82;;;3.83;;
7193;SDS011;3638;48.820;9.244;2023-06-14T10:49:56;5.07;;;3.97;;
7193;SDS011;3638;48.820;9.244;2023-06-14T10:52:32;6.22;;;3.75;;
7193;SDS011;3638;48.820;9.244;2023-06-14T10:55:05;4.25;;;3.85;;
7193;SDS011;3638;48.820;9.244;2023-06-14T10:57:36;5.88;;;3.67;;
7193;SDS011;3638;48.820;9.244;2023-06-14T11:00:05;5.13;;;4.07;;
7193;SDS011;3638;48.820;9.244;2023-06-14T11:06:12;6.00;;;3.63;;
7193;SDS011;3638;48.820;9.244;2023-06-14T11:11:50;6.00;;;3.75;;
7193;SDS011;3638;48.820;9.244;2023-06-14T11:14:20;8.25;;;3.83;;
7193;SDS011;3638;48.820;9.244;2023-06-14T11:16:50;6.40;;;4.05;;
7193;SDS011;3638;48.820;9.244;2023-06-14T11:19:17;4.05;;;3.60;;
7193;SDS011;3638;48.820;9.244;2023-06-14T11:21:48;5.95;;;3.88;;
7193;SDS011;3638;48.820;9.244;2023-06-14T11:24:15;5.65;;;3.90;;
7193;SDS011;3638;48.820;9.244;2023-06-14T11:26:43;5.85;;;4.05;;
7193;SDS011;3638;48.820;9.244;2023-06-14T11:29:10;5.80;;;3.53;;
7193;SDS011;3638;48.820;9.244;2023-06-14T11:31:37;6.15;;;4.20;;
7193;SDS011;3638;48.820;9.244;2023-06-14T11:34:04;4.82;;;3.65;;
7193;SDS011;3638;48.820;9.244;2023-06-14T11:36:33;6.15;;;3.72;;
7193;SDS011;3638;48.820;9.244;2023-06-14T11:39:02;6.47;;;3.63;;
7193;SDS011;3638;48.820;9.244;2023-06-14T11:41:32;6.28;;;3.92;;
7193;SDS011;3638;48.820;9.244;2023-06-14T11:44:00;4.80;;;3.63;;
7193;SDS011;3638;48.820;9.244;2023-06-14T11:46:28;6.47;;;3.78;;
7193;SDS011;3638;48.820;9.244;2023-06-14T11:48:55;7.05;;;3.72;;
7193;SDS011;3638;48.820;9.244;2023-06-14T11:51:23;13.02;;;4.68;;
7193;SDS011;3638;48.820;9.244;2023-06-14T11:53:50;15.80;;;5.45;;
7193;SDS011;3638;48.820;9.244;2023-06-14T11:56:19;8.15;;;3.97;;
7193;SDS011;3638;48.820;9.244;2023-06-14T11:58:46;3.67;;;3.33;;
7193;SDS011;3638;48.820;9.244;2023-06-14T12:01:14;4.03;;;3.47;;
7193;SDS011;3638;48.820;9.244;2023-06-14T12:03:46;5.38;;;3.55;;
7193;SDS011;3638;48.820;9.244;2023-06-14T12:06:14;7.70;;;3.58;;
7193;SDS011;3638;48.820;9.244;2023-06-14T12:08:43;8.80;;;4.28;;
7193;SDS011;3638;48.820;9.244;2023-06-14T12:11:11;4.35;;;3.72;;
7193;SDS011;3638;48.820;9.244;2023-06-14T12:13:40;5.30;;;3.95;;
7193;SDS011;3638;48.820;9.244;2023-06-14T12:16:07;5.32;;;3.53;;
7193;SDS011;3638;48.820;9.244;2023-06-14T12:18:35;4.40;;;3.50;;
7193;SDS011;3638;48.820;9.244;2023-06-14T12:21:03;5.07;;;3.42;;
7193;SDS011;3638;48.820;9.244;2023-06-14T12:23:44;4.05;;;3.65;;
7193;SDS011;3638;48.820;9.244;2023-06-14T12:26:13;6.38;;;3.42;;
7193;SDS011;3638;48.820;9.244;2023-06-14T12:28:43;6.45;;;3.40;;
7193;SDS011;3638;48.820;9.244;2023-06-14T12:31:12;5.88;;;3.40;;
7193;SDS011;3638;48.820;9.244;2023-06-14T12:33:41;3.97;;;3.50;;
7193;SDS011;3638;48.820;9.244;2023-06-14T12:36:10;7.28;;;3.58;;
7193;SDS011;3638;48.820;9.244;2023-06-14T12:38:37;6.78;;;3.72;;
7193;SDS011;3638;48.820;9.244;2023-06-14T12:41:04;3.83;;;3.53;;
7193;SDS011;3638;48.820;9.244;2023-06-14T12:43:32;4.63;;;3.47;;
7193;SDS011;3638;48.820;9.244;2023-06-14T12:46:01;4.85;;;3.50;;
7193;SDS011;3638;48.820;9.244;2023-06-14T12:48:27;5.72;;;3.75;;
7193;SDS011;3638;48.820;9.244;2023-06-14T12:50:56;6.45;;;3.80;;
7193;SDS011;3638;48.820;9.244;2023-06-14T12:53:23;6.10;;;3.22;;
7193;SDS011;3638;48.820;9.244;2023-06-14T12:55:50;4.38;;;3.30;;
7193;SDS011;3638;48.820;9.244;2023-06-14T12:58:17;7.35;;;3.50;;
7193;SDS011;3638;48.820;9.244;2023-06-14T13:00:44;5.57;;;3.70;;
7193;SDS011;3638;48.820;9.244;2023-06-14T13:03:13;6.70;;;3.70;;
7193;SDS011;3638;48.820;9.244;2023-06-14T13:05:40;6.80;;;3.78;;
7193;SDS011;3638;48.820;9.244;2023-06-14T13:08:08;6.68;;;3.72;;
7193;SDS011;3638;48.820;9.244;2023-06-14T13:10:35;3.80;;;3.50;;
7193;SDS011;3638;48.820;9.244;2023-06-14T13:13:02;8.05;;;3.90;;
7193;SDS011;3638;48.820;9.244;2023-06-14T13:15:29;4.95;;;3.83;;
7193;SDS011;3638;48.820;9.244;2023-06-14T13:17:56;6.30;;;3.67;;
7193;SDS011;3638;48.820;9.244;2023-06-14T13:20:24;5.07;;;3.67;;
7193;SDS011;3638;48.820;9.244;2023-06-14T13:22:51;6.45;;;3.70;;
7193;SDS011;3638;48.820;9.244;2023-06-14T13:25:18;5.35;;;3.63;;
7193;SDS011;3638;48.820;9.244;2023-06-14T13:27:45;10.50;;;4.18;;
7193;SDS011;3638;48.820;9.244;2023-06-14T13:30:12;4.68;;;3.80;;
7193;SDS011;3638;48.820;9.244;2023-06-14T13:32:39;4.97;;;3.60;;
7193;SDS011;3638;48.820;9.244;2023-06-14T13:35:06;4.22;;;3.30;;
7193;SDS011;3638;48.820;9.244;2023-06-14T13:37:35;7.55;;;4.05;;
7193;SDS011;3638;48.820;9.244;2023-06-14T13:40:02;4.40;;;3.70;;
7193;SDS011;3638;48.820;9.244;2023-06-14T13:42:30;3.92;;;3.53;;
7193;SDS011;3638;48.820;9.244;2023-06-14T13:44:57;6.97;;;4.05;;
7193;SDS011;3638;48.820;9.244;2023-06-14T13:47:24;5.35;;;3.58;;
7193;SDS011;3638;48.820;9.244;2023-06-14T13:49:51;5.10;;;3.67;;
7193;SDS011;3638;48.820;9.244;2023-06-14T13:52:18;7.03;;;3.58;;
7193;SDS011;3638;48.820;9.244;2023-06-14T13:54:47;6.25;;;4.43;;
7193;SDS011;3638;48.820;9.244;2023-06-14T13:57:14;8.05;;;4.35;;
7193;SDS011;3638;48.820;9.244;2023-06-14T13:59:41;4.22;;;3.63;;
7193;SDS011;3638;48.820;9.244;2023-06-14T14:02:09;8.15;;;4.55;;
7193;SDS011;3638;48.820;9.244;2023-06-14T14:04:36;5.68;;;3.70;;
7193;SDS011;3638;48.820;9.244;2023-06-14T14:07:04;4.45;;;3.28;;
7193;SDS011;3638;48.820;9.244;2023-06-14T14:09:32;4.45;;;4.03;;
7193;SDS011;3638;48.820;9.244;2023-06-14T14:12:01;5.60;;;3.88;;
7193;SDS011;3638;48.820;9.244;2023-06-14T14:14:28;5.05;;;3.50;;
7193;SDS011;3638;48.820;9.244;2023-06-14T14:16:57;5.05;;;3.65;;
7193;SDS011;3638;48.820;9.244;2023-06-14T14:19:24;5.97;;;3.70;;
7193;SDS011;3638;48.820;9.244;2023-06-14T14:21:51;7.07;;;3.70;;
7193;SDS011;3638;48.820;9.244;2023-06-14T14:24:18;8.35;;;3.53;;
7193;SDS011;3638;48.820;9.244;2023-06-14T14:26:45;5.88;;;3.85;;
7193;SDS011;3638;48.820;9.244;2023-06-14T14:29:14;4.80;;;3.90;;
7193;SDS011;3638;48.820;9.244;2023-06-14T14:31:42;6.22;;;3.75;;
7193;SDS011;3638;48.820;9.244;2023-06-14T14:34:08;7.32;;;3.95;;
7193;SDS011;3638;48.820;9.244;2023-06-14T14:36:35;4.78;;;3.80;;
7193;SDS011;3638;48.820;9.244;2023-06-14T14:39:02;4.07;;;3.67;;
7193;SDS011;3638;48.820;9.244;2023-06-14T14:41:30;3.90;;;3.50;;
7193;SDS011;3638;48.820;9.244;2023-06-14T14:43:56;5.35;;;3.92;;
7193;SDS011;3638;48.820;9.244;2023-06-14T14:46:25;4.88;;;3.47;;
7193;SDS011;3638;48.820;9.244;2023-06-14T14:48:53;5.15;;;3.67;;
7193;SDS011;3638;48.820;9.244;2023-06-14T14:51:20;5.85;;;3.67;;
7193;SDS011;3638;48.820;9.244;2023-06-14T14:53:47;5.95;;;3.75;;
7193;SDS011;3638;48.820;9.244;2023-06-14T14:56:13;5.63;;;3.80;;
7193;SDS011;3638;48.820;9.244;2023-06-14T14:58:40;4.35;;;3.88;;
7193;SDS011;3638;48.820;9.244;2023-06-14T15:01:07;5.97;;;3.70;;
7193;SDS011;3638;48.820;9.244;2023-06-14T15:03:35;4.32;;;3.15;;
7193;SDS011;3638;48.820;9.244;2023-06-14T15:06:02;6.18;;;3.70;;
7193;SDS011;3638;48.820;9.244;2023-06-14T15:08:29;5.25;;;3.67;;
7193;SDS011;3638;48.820;9.244;2023-06-14T15:10:56;5.30;;;3.75;;
7193;SDS011;3638;48.820;9.244;2023-06-14T15:13:23;4.40;;;3.17;;
7193;SDS011;3638;48.820;9.244;2023-06-14T15:15:50;6.13;;;3.53;;
7193;SDS011;3638;48.820;9.244;2023-06-14T15:18:17;7.57;;;3.95;;
7193;SDS011;3638;48.820;9.244;2023-06-14T15:20:46;5.60;;;3.90;;
7193;SDS011;3638;48.820;9.244;2023-06-14T15:23:13;6.25;;;3.75;;
7193;SDS011;3638;48.820;9.244;2023-06-14T15:25:44;6.93;;;3.75;;
7193;SDS011;3638;48.820;9.244;2023-06-14T15:28:13;5.15;;;3.67;;
7193;SDS011;3638;48.820;9.244;2023-06-14T15:30:40;5.72;;;3.80;;
7193;SDS011;3638;48.820;9.244;2023-06-14T15:33:06;7.85;;;3.92;;
7193;SDS011;3638;48.820;9.244;2023-06-14T15:35:33;4.78;;;3.78;;